createdAt,value
2022-10-12T00:00:10.545Z,96915.97
2022-10-12T00:02:42.752Z,96920.38
2022-10-12T00:05:10.215Z,96923.25
2022-10-12T00:07:40.373Z,96914.06
2022-10-12T00:10:08.389Z,96924.91
2022-10-12T00:12:35.601Z,96924.19
2022-10-12T00:15:02.873Z,96930.50
2022-10-12T00:17:30.230Z,96920.09
2022-10-12T00:19:57.524Z,96921.75
2022-10-12T00:22:25.067Z,96919.13
2022-10-12T00:24:53.894Z,96912.00
2022-10-12T00:27:23.858Z,96911.88
2022-10-12T00:29:50.899Z,96910.06
2022-10-12T00:32:18.921Z,96912.56
2022-10-12T00:34:45.805Z,96918.72
2022-10-12T00:37:12.652Z,96916.38
2022-10-12T00:39:39.448Z,96912.25
2022-10-12T00:42:06.309Z,96913.63
2022-10-12T00:44:40.068Z,96908.09
2022-10-12T00:47:37.316Z,96902.59
2022-10-12T00:50:16.079Z,96903.00
2022-10-12T00:52:51.966Z,96909.31
2022-10-12T00:55:23.525Z,96908.75
2022-10-12T00:57:53.246Z,96912.31
2022-10-12T01:00:20.843Z,96907.38
2022-10-12T01:02:50.404Z,96908.19
2022-10-12T01:05:18.716Z,96907.09
2022-10-12T01:07:45.718Z,96913.00
2022-10-12T01:10:12.990Z,96911.66
2022-10-12T01:12:43.209Z,96911.25
2022-10-12T01:15:12.220Z,96901.13
2022-10-12T01:17:59.167Z,96910.75
2022-10-12T01:20:38.560Z,96905.69
2022-10-12T01:23:46.836Z,96900.63
2022-10-12T01:26:32.249Z,96898.97
2022-10-12T01:29:21.982Z,96904.22
2022-10-12T01:32:00.226Z,96897.66
2022-10-12T01:34:40.369Z,96898.34
2022-10-12T01:37:16.421Z,96891.91
2022-10-12T01:39:56.275Z,96894.34
2022-10-12T01:42:45.888Z,96901.78
2022-10-12T01:45:18.089Z,96898.50
2022-10-12T01:47:49.041Z,96898.09
2022-10-12T01:50:17.483Z,96899.31
2022-10-12T01:53:02.589Z,96897.38
2022-10-12T01:55:39.009Z,96897.94
2022-10-12T01:58:11.602Z,96884.06
2022-10-12T02:00:44.167Z,96891.47
2022-10-12T02:03:21.301Z,96888.03
2022-10-12T02:06:00.771Z,96888.59
2022-10-12T02:09:08.100Z,96890.81
2022-10-12T02:11:38.038Z,96879.00
2022-10-12T02:14:18.866Z,96881.75
2022-10-12T02:16:56.198Z,96885.47
2022-10-12T02:19:27.265Z,96886.69
2022-10-12T02:21:56.615Z,96883.53
2022-10-12T02:24:24.231Z,96878.16
2022-10-12T02:26:53.788Z,96876.25
2022-10-12T02:29:30.703Z,96883.38
2022-10-12T02:32:06.775Z,96875.69
2022-10-12T02:34:36.244Z,96879.13
2022-10-12T02:37:08.688Z,96874.75
2022-10-12T02:40:17.358Z,96871.59
2022-10-12T02:43:09.372Z,96872.53
2022-10-12T02:45:40.994Z,96883.91
2022-10-12T02:48:10.538Z,96869.63
2022-10-12T02:50:37.641Z,96870.19
2022-10-12T02:53:04.883Z,96867.13
2022-10-12T02:55:32.201Z,96859.47
2022-10-12T02:57:59.054Z,96859.16
2022-10-12T03:00:26.172Z,96861.50
2022-10-12T03:02:52.944Z,96867.09
2022-10-12T03:05:19.765Z,96873.44
2022-10-12T03:07:46.590Z,96871.91
2022-10-12T03:10:13.439Z,96877.53
2022-10-12T03:12:40.234Z,96870.50
2022-10-12T03:15:08.553Z,96881.19
2022-10-12T03:17:35.528Z,96873.94
2022-10-12T03:20:02.472Z,96874.63
2022-10-12T03:22:29.267Z,96875.88
2022-10-12T03:24:56.721Z,96879.72
2022-10-12T03:27:24.087Z,96879.44
2022-10-12T03:29:50.887Z,96882.44
2022-10-12T03:32:18.320Z,96880.25
2022-10-12T03:34:45.120Z,96875.03
2022-10-12T03:37:11.901Z,96871.72
2022-10-12T03:39:38.739Z,96867.22
2022-10-12T03:42:05.760Z,96872.97
2022-10-12T03:44:32.516Z,96873.69
2022-10-12T03:46:59.385Z,96873.13
2022-10-12T03:49:26.169Z,96872.31
2022-10-12T03:51:53.006Z,96870.50
2022-10-12T03:54:19.788Z,96870.63
2022-10-12T03:56:46.574Z,96869.41
2022-10-12T03:59:13.322Z,96873.94
2022-10-12T04:01:40.190Z,96868.09
2022-10-12T04:04:07.073Z,96869.09
2022-10-12T04:06:33.863Z,96868.09
2022-10-12T04:09:00.618Z,96865.94
2022-10-12T04:11:27.497Z,96867.84
2022-10-12T04:13:54.498Z,96865.09
2022-10-12T04:16:21.308Z,96860.13
2022-10-12T04:18:48.085Z,96866.44
2022-10-12T04:21:16.565Z,96862.31
2022-10-12T04:23:43.409Z,96864.94
2022-10-12T04:26:10.211Z,96868.63
2022-10-12T04:28:37.274Z,96866.03
2022-10-12T04:31:04.185Z,96870.38
2022-10-12T04:33:30.962Z,96867.47
2022-10-12T04:35:57.912Z,96865.00
2022-10-12T04:38:24.764Z,96866.91
2022-10-12T04:40:51.537Z,96862.50
2022-10-12T04:43:18.356Z,96862.25
2022-10-12T04:45:45.157Z,96860.75
2022-10-12T04:48:11.910Z,96859.56
2022-10-12T04:50:38.700Z,96863.69
2022-10-12T04:53:05.449Z,96868.19
2022-10-12T04:55:32.359Z,96863.94
2022-10-12T04:58:00.747Z,96859.56
2022-10-12T05:00:28.746Z,96862.03
2022-10-12T05:02:55.504Z,96871.63
2022-10-12T05:05:22.294Z,96863.41
2022-10-12T05:07:49.161Z,96868.94
2022-10-12T05:10:16.175Z,96869.72
2022-10-12T05:12:43.116Z,96866.66
2022-10-12T05:15:11.208Z,96871.28
2022-10-12T05:17:38.269Z,96870.75
2022-10-12T05:20:05.829Z,96868.56
2022-10-12T05:22:32.602Z,96871.63
2022-10-12T05:24:59.640Z,96865.88
2022-10-12T05:27:26.467Z,96865.34
2022-10-12T05:29:53.294Z,96864.84
2022-10-12T05:32:20.124Z,96867.03
2022-10-12T05:34:46.985Z,96865.94
2022-10-12T05:37:14.069Z,96866.75
2022-10-12T05:39:40.897Z,96866.66
2022-10-12T05:42:07.826Z,96865.69
2022-10-12T05:44:34.613Z,96866.91
2022-10-12T05:47:01.503Z,96866.41
2022-10-12T05:49:28.875Z,96869.31
2022-10-12T05:51:55.651Z,96864.09
2022-10-12T05:54:22.459Z,96864.09
2022-10-12T05:56:49.282Z,96867.66
2022-10-12T05:59:16.140Z,96868.06
2022-10-12T06:01:43.024Z,96868.88
2022-10-12T06:04:09.943Z,96876.44
2022-10-12T06:06:36.847Z,96875.47
2022-10-12T06:09:03.774Z,96874.94
2022-10-12T06:11:32.731Z,96884.69
2022-10-12T06:14:03.082Z,96876.59
2022-10-12T06:16:29.891Z,96881.53
2022-10-12T06:18:56.723Z,96883.88
2022-10-12T06:21:38.732Z,96881.81
2022-10-12T06:24:06.039Z,96882.50
2022-10-12T06:26:33.227Z,96884.28
2022-10-12T06:29:00.928Z,96879.91
2022-10-12T06:31:28.946Z,96887.25
2022-10-12T06:33:56.029Z,96880.66
2022-10-12T06:36:23.802Z,96886.28
2022-10-12T06:38:50.674Z,96886.56
2022-10-12T06:41:17.638Z,96886.69
2022-10-12T06:43:44.681Z,96881.75
2022-10-12T06:46:12.070Z,96880.34
2022-10-12T06:48:38.884Z,96883.09
2022-10-12T06:51:05.863Z,96887.75
2022-10-12T06:53:33.198Z,96882.25
2022-10-12T06:56:00.127Z,96878.66
2022-10-12T06:58:26.944Z,96880.03
2022-10-12T07:00:53.753Z,96884.03
2022-10-12T07:03:20.642Z,96888.81
2022-10-12T07:05:47.485Z,96885.75
2022-10-12T07:08:14.355Z,96888.09
2022-10-12T07:10:41.114Z,96892.75
2022-10-12T07:13:07.943Z,96890.28
2022-10-12T07:15:34.740Z,96898.50
2022-10-12T07:18:01.562Z,96894.34
2022-10-12T07:20:28.355Z,96893.66
2022-10-12T07:22:55.184Z,96891.13
2022-10-12T07:25:22.445Z,96894.66
2022-10-12T07:27:49.688Z,96891.06
2022-10-12T07:30:16.761Z,96891.00
2022-10-12T07:32:44.970Z,96884.94
2022-10-12T07:35:12.021Z,96888.47
2022-10-12T07:37:39.154Z,96885.09
2022-10-12T07:40:06.786Z,96882.88
2022-10-12T07:42:33.699Z,96886.19
2022-10-12T07:45:00.461Z,96877.50
2022-10-12T07:47:27.263Z,96882.56
2022-10-12T07:49:54.056Z,96878.47
2022-10-12T07:52:21.105Z,96878.78
2022-10-12T07:54:47.931Z,96885.94
2022-10-12T07:57:14.758Z,96885.78
2022-10-12T07:59:41.529Z,96881.25
2022-10-12T08:02:10.409Z,96885.19
2022-10-12T08:04:37.286Z,96883.94
2022-10-12T08:07:04.200Z,96883.66
2022-10-12T08:09:31.000Z,96886.09
2022-10-12T08:11:57.783Z,96884.31
2022-10-12T08:14:24.621Z,96883.34
2022-10-12T08:16:51.448Z,96877.56
2022-10-12T08:19:18.297Z,96882.69
2022-10-12T08:21:45.192Z,96883.34
2022-10-12T08:24:12.803Z,96878.50
2022-10-12T08:26:39.750Z,96875.28
2022-10-12T08:29:08.333Z,96878.94
2022-10-12T08:31:35.756Z,96878.03
2022-10-12T08:34:03.074Z,96869.44
2022-10-12T08:36:29.889Z,96866.91
2022-10-12T08:38:56.741Z,96866.94
2022-10-12T08:42:06.035Z,96866.03
2022-10-12T08:44:46.746Z,96864.84
2022-10-12T08:47:22.973Z,96865.19
2022-10-12T08:49:51.209Z,96859.03
2022-10-12T08:52:23.749Z,96856.31
2022-10-12T08:54:50.661Z,96859.66
2022-10-12T08:57:19.638Z,96858.25
2022-10-12T08:59:47.523Z,96859.81
2022-10-12T09:02:25.972Z,96861.13
2022-10-12T09:04:52.726Z,96863.94
2022-10-12T09:07:34.879Z,96869.41
2022-10-12T09:10:37.012Z,96865.97
2022-10-12T09:13:22.208Z,96859.94
2022-10-12T09:15:59.200Z,96861.09
2022-10-12T09:18:41.177Z,96856.19
2022-10-12T09:21:18.983Z,96855.88
2022-10-12T09:23:46.984Z,96854.25
2022-10-12T09:26:13.746Z,96862.31
2022-10-12T09:28:50.994Z,96860.38
2022-10-12T09:31:50.270Z,96853.19
2022-10-12T09:34:19.437Z,96855.81
2022-10-12T09:36:46.608Z,96856.13
2022-10-12T09:39:23.458Z,96851.09
2022-10-12T09:41:52.454Z,96850.97
2022-10-12T09:44:31.284Z,96852.91
2022-10-12T09:47:03.087Z,96845.34
2022-10-12T09:49:47.712Z,96839.47
2022-10-12T09:52:17.284Z,96843.75
2022-10-12T09:54:51.086Z,96840.44
2022-10-12T09:57:25.017Z,96839.63
2022-10-12T09:59:52.325Z,96842.38
2022-10-12T10:02:21.623Z,96842.72
2022-10-12T10:04:49.988Z,96843.38
2022-10-12T10:07:33.535Z,96839.41
2022-10-12T10:10:16.775Z,96838.22
2022-10-12T10:12:56.199Z,96837.41
2022-10-12T10:15:34.838Z,96825.69
2022-10-12T10:18:16.118Z,96837.03
2022-10-12T10:20:54.798Z,96829.09
2022-10-12T10:23:32.949Z,96829.09
2022-10-12T10:26:04.842Z,96825.13
2022-10-12T10:28:34.296Z,96826.19
2022-10-12T10:31:04.232Z,96822.53
2022-10-12T10:33:34.114Z,96826.53
2022-10-12T10:36:09.238Z,96824.69
2022-10-12T10:38:56.638Z,96820.91
2022-10-12T10:41:28.550Z,96814.59
2022-10-12T10:43:55.685Z,96817.69
2022-10-12T10:46:25.196Z,96822.72
2022-10-12T10:48:56.561Z,96814.88
2022-10-12T10:51:38.649Z,96821.03
2022-10-12T10:54:23.932Z,96814.34
2022-10-12T10:56:54.482Z,96815.88
2022-10-12T10:59:30.434Z,96807.16
2022-10-12T11:02:08.643Z,96811.44
2022-10-12T11:04:41.098Z,96798.13
2022-10-12T11:07:30.478Z,96789.78
2022-10-12T11:10:01.276Z,96789.19
2022-10-12T11:12:40.651Z,96787.94
2022-10-12T11:15:38.557Z,96772.09
2022-10-12T11:18:17.551Z,96780.75
2022-10-12T11:21:00.058Z,96777.53
2022-10-12T11:23:42.414Z,96776.31
2022-10-12T11:26:23.068Z,96772.31
2022-10-12T11:28:50.111Z,96774.47
2022-10-12T11:31:26.984Z,96772.16
2022-10-12T11:33:56.713Z,96774.69
2022-10-12T11:36:26.457Z,96773.94
2022-10-12T11:39:05.957Z,96772.53
2022-10-12T11:42:03.090Z,96777.44
2022-10-12T11:44:44.603Z,96775.97
2022-10-12T11:47:29.976Z,96775.34
2022-10-12T11:50:02.678Z,96767.97
2022-10-12T11:52:37.388Z,96770.28
2022-10-12T11:55:30.346Z,96764.81
2022-10-12T11:58:10.712Z,96759.09
2022-10-12T12:00:59.120Z,96757.25
2022-10-12T12:03:33.445Z,96756.41
2022-10-12T12:06:45.643Z,96765.25
2022-10-12T12:09:19.272Z,96745.81
2022-10-12T12:11:46.153Z,96747.81
2022-10-12T12:14:22.137Z,96747.63
2022-10-12T12:16:49.907Z,96747.75
2022-10-12T12:19:38.340Z,96747.03
2022-10-12T12:22:19.419Z,96739.59
2022-10-12T12:25:08.497Z,96737.00
2022-10-12T12:27:40.152Z,96735.88
2022-10-12T12:30:32.531Z,96743.72
2022-10-12T12:33:05.122Z,96736.72
2022-10-12T12:35:50.407Z,96738.72
2022-10-12T12:38:23.815Z,96738.75
2022-10-12T12:41:03.508Z,96736.91
2022-10-12T12:43:30.228Z,96739.06
2022-10-12T12:46:05.432Z,96730.63
2022-10-12T12:48:52.468Z,96740.88
2022-10-12T12:51:23.819Z,96739.03
2022-10-12T12:53:53.622Z,96737.53
2022-10-12T12:56:43.522Z,96744.31
2022-10-12T12:59:41.279Z,96730.63
2022-10-12T13:02:35.240Z,96727.88
2022-10-12T13:05:20.993Z,96721.28
2022-10-12T13:08:04.048Z,96721.75
2022-10-12T13:10:56.688Z,96723.41
2022-10-12T13:13:50.149Z,96717.59
2022-10-12T13:19:49.512Z,96712.28
2022-10-12T13:22:35.064Z,96714.53
2022-10-12T13:25:06.874Z,96710.84
2022-10-12T13:27:43.311Z,96699.78
2022-10-12T13:30:34.657Z,96700.72
2022-10-12T13:33:10.773Z,96702.63
2022-10-12T13:35:43.478Z,96701.78
2022-10-12T13:38:16.282Z,96700.03
2022-10-12T13:40:51.626Z,96708.63
2022-10-12T13:43:33.675Z,96708.31
2022-10-12T13:46:01.501Z,96703.88
2022-10-12T13:48:57.634Z,96703.63
2022-10-12T13:51:25.642Z,96704.91
2022-10-12T13:53:52.567Z,96698.97
2022-10-12T13:56:28.268Z,96707.91
2022-10-12T13:59:05.540Z,96703.22
2022-10-12T14:01:48.092Z,96694.88
2022-10-12T14:04:14.887Z,96698.38
2022-10-12T14:06:41.679Z,96693.75
2022-10-12T14:09:28.403Z,96690.75
2022-10-12T14:11:56.684Z,96692.09
2022-10-12T14:14:31.126Z,96685.06
2022-10-12T14:16:58.221Z,96684.47
2022-10-12T14:19:40.092Z,96682.44
2022-10-12T14:22:07.964Z,96685.34
2022-10-12T14:24:36.716Z,96684.09
2022-10-12T14:27:21.032Z,96678.81
2022-10-12T14:29:48.949Z,96681.06
2022-10-12T14:32:15.900Z,96680.59
2022-10-12T14:34:49.093Z,96680.81
2022-10-12T14:37:15.776Z,96689.16
2022-10-12T14:39:48.177Z,96679.34
2022-10-12T14:42:30.381Z,96679.56
2022-10-12T14:44:57.597Z,96670.78
2022-10-12T14:47:29.321Z,96679.78
2022-10-12T14:49:58.120Z,96660.81
2022-10-12T14:52:32.975Z,96672.00
2022-10-12T14:55:00.028Z,96671.41
2022-10-12T14:57:31.279Z,96671.00
2022-10-12T14:59:58.872Z,96673.22
2022-10-12T15:02:32.974Z,96675.03
2022-10-12T15:05:00.802Z,96671.16
2022-10-12T15:07:31.581Z,96664.84
2022-10-12T15:09:58.660Z,96663.97
2022-10-12T15:12:26.778Z,96659.47
2022-10-12T15:14:56.271Z,96655.97
2022-10-12T15:17:23.310Z,96659.56
2022-10-12T15:19:51.777Z,96661.22
2022-10-12T15:22:27.879Z,96663.03
2022-10-12T15:24:55.422Z,96657.31
2022-10-12T15:27:22.312Z,96647.16
2022-10-12T15:29:49.171Z,96657.09
2022-10-12T15:32:17.769Z,96654.03
2022-10-12T15:34:45.721Z,96650.56
2022-10-12T15:37:12.854Z,96656.44
2022-10-12T15:39:40.492Z,96651.72
2022-10-12T15:42:07.403Z,96653.31
2022-10-12T15:44:39.485Z,96657.75
2022-10-12T15:47:06.277Z,96661.34
2022-10-12T15:49:33.084Z,96658.50
2022-10-12T15:52:00.499Z,96659.84
2022-10-12T15:54:27.306Z,96659.78
2022-10-12T15:56:54.290Z,96657.50
2022-10-12T15:59:21.305Z,96660.94
2022-10-12T16:01:48.386Z,96662.31
2022-10-12T16:04:15.782Z,96663.44
2022-10-12T16:06:42.641Z,96659.56
2022-10-12T16:09:10.170Z,96658.06
2022-10-12T16:11:37.051Z,96646.44
2022-10-12T16:14:03.968Z,96654.28
2022-10-12T16:16:32.115Z,96656.03
2022-10-12T16:18:58.999Z,96659.81
2022-10-12T16:21:25.886Z,96656.03
2022-10-12T16:23:52.728Z,96659.13
2022-10-12T16:26:19.537Z,96653.91
2022-10-12T16:28:46.417Z,96656.81
2022-10-12T16:31:16.032Z,96655.47
2022-10-12T16:33:43.213Z,96656.94
2022-10-12T16:36:13.526Z,96649.97
2022-10-12T16:38:40.699Z,96657.50
2022-10-12T16:41:12.935Z,96653.22
2022-10-12T16:43:40.110Z,96655.63
2022-10-12T16:46:07.524Z,96654.09
2022-10-12T16:48:34.713Z,96651.72
2022-10-12T16:51:01.593Z,96654.25
2022-10-12T16:53:28.427Z,96656.59
2022-10-12T16:55:55.226Z,96658.94
2022-10-12T16:58:22.165Z,96656.19
2022-10-12T17:00:49.181Z,96654.47
2022-10-12T17:03:16.166Z,96655.00
2022-10-12T17:05:43.117Z,96663.78
2022-10-12T17:08:15.042Z,96668.13
2022-10-12T17:10:44.010Z,96661.28
2022-10-12T17:13:11.155Z,96663.25
2022-10-12T17:15:42.131Z,96670.22
2022-10-12T17:18:09.291Z,96672.78
2022-10-12T17:20:37.161Z,96666.88
2022-10-12T17:23:04.230Z,96668.91
2022-10-12T17:25:31.053Z,96666.19
2022-10-12T17:27:57.873Z,96676.22
2022-10-12T17:30:24.868Z,96674.81
2022-10-12T17:32:51.728Z,96668.31
2022-10-12T17:35:18.538Z,96668.00
2022-10-12T17:37:45.340Z,96662.47
2022-10-12T17:40:12.185Z,96670.03
2022-10-12T17:42:39.309Z,96671.75
2022-10-12T17:45:06.571Z,96669.41
2022-10-12T17:47:33.383Z,96678.47
2022-10-12T17:50:00.243Z,96671.22
2022-10-12T17:52:27.076Z,96680.13
2022-10-12T17:54:53.842Z,96665.84
2022-10-12T17:57:21.047Z,96666.16
2022-10-12T18:00:07.848Z,96662.41
2022-10-12T18:02:38.263Z,96668.81
2022-10-12T18:05:05.325Z,96668.31
2022-10-12T18:07:32.133Z,96665.84
2022-10-12T18:12:25.688Z,96663.75
2022-10-12T18:14:52.440Z,96655.19
2022-10-12T18:17:19.215Z,96662.91
2022-10-12T18:19:47.203Z,96657.97
2022-10-12T18:22:14.285Z,96662.91
2022-10-12T18:24:41.454Z,96660.59
2022-10-12T18:27:08.321Z,96662.91
2022-10-12T18:29:35.179Z,96659.63
2022-10-12T18:32:02.018Z,96663.22
2022-10-12T18:34:30.954Z,96662.25
2022-10-12T18:37:01.159Z,96666.81
2022-10-12T18:39:27.941Z,96661.94
2022-10-12T18:41:54.733Z,96665.84
2022-10-12T18:44:22.199Z,96667.31
2022-10-12T18:46:49.616Z,96666.03
2022-10-12T18:49:16.507Z,96658.47
2022-10-12T18:51:50.004Z,96663.03
2022-10-12T18:54:17.536Z,96666.31
2022-10-12T18:56:45.047Z,96663.22
2022-10-12T18:59:13.406Z,96655.53
2022-10-12T19:01:40.408Z,96656.63
2022-10-12T19:04:07.278Z,96658.94
2022-10-12T19:06:36.373Z,96652.84
2022-10-12T19:09:04.270Z,96654.00
2022-10-12T19:11:32.041Z,96655.97
2022-10-12T19:14:05.385Z,96656.31
2022-10-12T19:16:32.880Z,96654.66
2022-10-12T19:19:04.022Z,96649.72
2022-10-12T19:21:31.498Z,96647.75
2022-10-12T19:24:01.679Z,96641.19
2022-10-12T19:26:28.547Z,96647.41
2022-10-12T19:28:57.384Z,96646.59
2022-10-12T19:31:33.464Z,96640.56
2022-10-12T19:34:03.651Z,96651.13
2022-10-12T19:36:31.614Z,96647.72
2022-10-12T19:39:00.920Z,96649.22
2022-10-12T19:41:30.142Z,96653.66
2022-10-12T19:43:58.594Z,96653.31
2022-10-12T19:46:25.802Z,96643.16
2022-10-12T19:48:54.629Z,96646.78
2022-10-12T19:51:23.188Z,96645.91
2022-10-12T19:53:54.232Z,96643.28
2022-10-12T19:56:21.269Z,96648.84
2022-10-12T19:58:49.788Z,96646.06
2022-10-12T20:01:22.472Z,96643.44
2022-10-12T20:03:50.659Z,96652.59
2022-10-12T20:06:18.743Z,96649.97
2022-10-12T20:08:46.169Z,96649.34
2022-10-12T20:11:19.049Z,96642.75
2022-10-12T20:13:49.763Z,96649.81
2022-10-12T20:16:18.276Z,96651.59
2022-10-12T20:18:45.372Z,96652.44
2022-10-12T20:21:14.751Z,96649.94
2022-10-12T20:23:43.101Z,96644.72
2022-10-12T20:26:13.978Z,96637.19
2022-10-12T20:28:41.178Z,96641.59
2022-10-12T20:31:08.639Z,96636.69
2022-10-12T20:33:37.238Z,96642.91
2022-10-12T20:36:08.193Z,96637.81
2022-10-12T20:38:34.888Z,96638.78
2022-10-12T20:41:06.774Z,96648.44
2022-10-12T20:43:33.612Z,96642.53
2022-10-12T20:46:13.632Z,96649.75
2022-10-12T20:48:40.981Z,96651.03
2022-10-12T20:51:09.750Z,96651.22
2022-10-12T20:53:37.851Z,96647.09
2022-10-12T20:56:08.814Z,96642.81
2022-10-12T20:58:35.533Z,96633.50
2022-10-12T21:01:07.302Z,96633.50
2022-10-12T21:03:35.036Z,96633.00
2022-10-12T21:06:06.758Z,96629.41
2022-10-12T21:08:34.250Z,96636.44
2022-10-12T21:11:01.383Z,96628.72
2022-10-12T21:13:33.060Z,96629.06
2022-10-12T21:16:00.187Z,96623.16
2022-10-12T21:18:27.574Z,96626.59
2022-10-12T21:21:03.340Z,96627.56
2022-10-12T21:23:30.268Z,96625.91
2022-10-12T21:25:57.150Z,96623.47
2022-10-12T21:28:24.182Z,96621.81
2022-10-12T21:30:51.151Z,96617.41
2022-10-12T21:33:18.510Z,96613.00
2022-10-12T21:35:45.626Z,96616.59
2022-10-12T21:38:12.549Z,96619.38
2022-10-12T21:40:39.342Z,96619.00
2022-10-12T21:43:06.156Z,96613.13
2022-10-12T21:45:33.217Z,96615.75
2022-10-12T21:48:00.201Z,96617.69
2022-10-12T21:50:28.172Z,96619.63
2022-10-12T21:53:00.016Z,96628.47
2022-10-12T21:55:27.189Z,96623.41
2022-10-12T21:57:53.971Z,96622.44
2022-10-12T22:00:20.896Z,96628.81
2022-10-12T22:02:49.260Z,96619.44
2022-10-12T22:05:16.120Z,96623.06
2022-10-12T22:07:43.035Z,96620.59
2022-10-12T22:10:12.776Z,96625.97
2022-10-12T22:12:39.785Z,96631.38
2022-10-12T22:15:08.145Z,96629.72
2022-10-12T22:17:35.603Z,96636.06
2022-10-12T22:20:02.567Z,96624.63
2022-10-12T22:22:29.626Z,96627.94
2022-10-12T22:24:56.408Z,96628.22
2022-10-12T22:27:25.802Z,96625.63
2022-10-12T22:29:52.583Z,96630.03
2022-10-12T22:32:19.653Z,96628.41
2022-10-12T22:34:46.825Z,96624.13
2022-10-12T22:37:13.605Z,96629.38
2022-10-12T22:39:40.395Z,96626.75
2022-10-12T22:42:07.188Z,96624.28
2022-10-12T22:44:33.949Z,96619.88
2022-10-12T22:47:00.725Z,96619.06
2022-10-12T22:49:27.508Z,96614.97
2022-10-12T22:51:54.382Z,96613.31
2022-10-12T22:54:21.153Z,96609.72
2022-10-12T22:56:48.044Z,96605.16
2022-10-12T22:59:15.557Z,96605.81
2022-10-12T23:01:42.453Z,96603.88
2022-10-12T23:04:09.751Z,96592.25
2022-10-12T23:06:37.156Z,96601.91
2022-10-12T23:09:04.400Z,96599.97
2022-10-12T23:11:31.557Z,96604.06
2022-10-12T23:13:58.721Z,96604.88
2022-10-12T23:16:31.781Z,96607.19
2022-10-12T23:19:00.884Z,96609.81
2022-10-12T23:21:29.534Z,96608.84
2022-10-12T23:23:57.989Z,96608.00
2022-10-12T23:26:26.737Z,96608.66
2022-10-12T23:28:54.571Z,96604.28
2022-10-12T23:31:24.267Z,96599.84
2022-10-12T23:34:05.303Z,96605.25
2022-10-12T23:36:34.232Z,96603.72
2022-10-12T23:39:02.871Z,96603.72
2022-10-12T23:41:29.714Z,96607.66
2022-10-12T23:43:56.572Z,96599.31
2022-10-12T23:46:23.367Z,96594.22
2022-10-12T23:48:51.346Z,96594.22
2022-10-12T23:51:18.237Z,96587.50
2022-10-12T23:53:45.062Z,96588.47
2022-10-12T23:56:11.975Z,96590.44
2022-10-12T23:58:38.832Z,96595.81
